createdAt,value
2023-01-23T00:00:48.410Z,0.46
2023-01-23T00:03:22.645Z,0.87
2023-01-23T00:06:05.717Z,0.80
2023-01-23T00:08:38.285Z,0.64
2023-01-23T00:11:17.292Z,0.63
2023-01-23T00:13:49.299Z,0.49
2023-01-23T00:16:23.515Z,0.73
2023-01-23T00:18:55.877Z,0.68
2023-01-23T00:21:30.361Z,0.81
2023-01-23T00:24:02.931Z,0.88
2023-01-23T00:26:35.555Z,0.67
2023-01-23T00:29:08.200Z,0.77
2023-01-23T00:31:40.316Z,0.66
2023-01-23T00:34:15.078Z,0.73
2023-01-23T00:36:47.312Z,0.72
2023-01-23T00:39:20.846Z,0.64
2023-01-23T00:41:52.936Z,0.55
2023-01-23T00:44:25.103Z,0.39
2023-01-23T00:47:03.544Z,0.52
2023-01-23T00:49:35.512Z,0.09
2023-01-23T00:52:07.524Z,0.54
2023-01-23T00:54:39.754Z,0.31
2023-01-23T00:57:11.880Z,0.64
2023-01-23T00:59:43.870Z,0.56
2023-01-23T01:02:15.819Z,0.50
2023-01-23T01:04:48.148Z,0.54
2023-01-23T01:07:20.116Z,0.51
2023-01-23T01:09:52.342Z,0.62
2023-01-23T01:12:27.163Z,-0.21
2023-01-23T01:15:10.608Z,-0.24
2023-01-23T01:17:42.720Z,0.18
2023-01-23T01:20:15.413Z,0.42
2023-01-23T01:22:47.475Z,0.33
2023-01-23T01:25:19.983Z,-0.20
2023-01-23T01:27:56.311Z,0.31
2023-01-23T01:30:29.409Z,0.70
2023-01-23T01:33:01.468Z,0.71
2023-01-23T01:35:33.580Z,0.55
2023-01-23T01:38:05.800Z,0.60
2023-01-23T01:40:38.204Z,0.72
2023-01-23T01:43:23.234Z,0.57
2023-01-23T01:46:09.011Z,0.73
2023-01-23T01:49:02.709Z,0.69
2023-01-23T01:51:41.504Z,0.70
2023-01-23T01:54:20.785Z,0.72
2023-01-23T01:56:59.814Z,0.65
2023-01-23T01:59:41.091Z,0.71
2023-01-23T02:02:35.911Z,0.67
2023-01-23T02:05:11.819Z,0.68
2023-01-23T02:08:21.132Z,0.77
2023-01-23T02:10:53.834Z,0.71
2023-01-23T02:13:34.011Z,0.49
2023-01-23T02:16:19.936Z,0.55
2023-01-23T02:18:54.989Z,0.68
2023-01-23T02:21:28.004Z,0.53
2023-01-23T02:24:17.899Z,0.61
2023-01-23T02:26:49.839Z,0.56
2023-01-23T02:29:21.900Z,0.45
2023-01-23T02:31:56.510Z,0.44
2023-01-23T02:34:30.391Z,0.55
2023-01-23T02:37:02.744Z,0.58
2023-01-23T02:39:34.745Z,0.81
2023-01-23T02:42:07.205Z,0.72
2023-01-23T02:44:39.245Z,0.65
2023-01-23T02:47:12.803Z,0.61
2023-01-23T02:49:45.223Z,0.45
2023-01-23T02:52:17.674Z,0.65
2023-01-23T02:54:49.599Z,0.48
2023-01-23T02:57:21.576Z,0.53
2023-01-23T03:00:11.896Z,0.62
2023-01-23T03:02:44.510Z,0.54
2023-01-23T03:05:17.545Z,0.55
2023-01-23T03:07:49.453Z,0.58
2023-01-23T03:10:21.679Z,0.72
2023-01-23T03:12:54.046Z,0.61
2023-01-23T03:15:27.246Z,0.57
2023-01-23T03:17:59.179Z,0.57
2023-01-23T03:20:38.091Z,0.56
2023-01-23T03:23:10.093Z,0.54
2023-01-23T03:25:45.291Z,0.71
2023-01-23T03:28:35.679Z,0.71
2023-01-23T03:31:07.678Z,0.59
2023-01-23T03:33:43.658Z,0.72
2023-01-23T03:36:15.853Z,0.71
2023-01-23T03:39:06.391Z,0.65
2023-01-23T03:41:42.186Z,0.63
2023-01-23T03:44:14.360Z,0.63
2023-01-23T03:46:51.654Z,0.68
2023-01-23T03:49:23.610Z,0.55
2023-01-23T03:51:55.586Z,0.60
2023-01-23T03:54:28.146Z,0.56
2023-01-23T03:57:00.318Z,0.55
2023-01-23T03:59:32.352Z,0.64
2023-01-23T04:02:07.111Z,0.64
2023-01-23T04:04:39.311Z,0.27
2023-01-23T04:07:11.243Z,0.44
2023-01-23T04:09:43.159Z,0.56
2023-01-23T04:12:15.483Z,0.44
2023-01-23T04:14:47.436Z,0.60
2023-01-23T04:17:19.464Z,0.56
2023-01-23T04:19:51.409Z,0.37
2023-01-23T04:22:23.379Z,0.44
2023-01-23T04:24:55.368Z,0.05
2023-01-23T04:27:27.419Z,0.51
2023-01-23T04:29:59.398Z,0.37
2023-01-23T04:32:31.413Z,0.43
2023-01-23T04:35:04.055Z,0.57
2023-01-23T04:37:36.041Z,0.49
2023-01-23T04:40:08.768Z,0.63
2023-01-23T04:42:51.093Z,0.29
2023-01-23T04:45:23.066Z,-0.06
2023-01-23T04:47:55.252Z,0.19
2023-01-23T04:50:29.966Z,0.21
2023-01-23T04:53:03.443Z,-0.06
2023-01-23T04:55:35.902Z,0.73
2023-01-23T04:58:11.172Z,0.49
2023-01-23T05:00:43.288Z,0.25
2023-01-23T05:03:16.307Z,0.54
2023-01-23T05:05:49.532Z,0.67
2023-01-23T05:08:21.560Z,0.47
2023-01-23T05:10:53.691Z,0.51
2023-01-23T05:13:27.250Z,0.47
2023-01-23T05:15:59.295Z,0.30
2023-01-23T05:18:31.316Z,-0.01
2023-01-23T05:21:03.641Z,0.10
2023-01-23T05:23:36.887Z,0.38
2023-01-23T05:26:09.183Z,-0.03
2023-01-23T05:28:41.409Z,0.28
2023-01-23T05:31:14.019Z,0.21
2023-01-23T05:33:46.221Z,-0.05
2023-01-23T05:36:18.805Z,0.23
2023-01-23T05:38:57.991Z,-0.13
2023-01-23T05:41:29.958Z,0.67
2023-01-23T05:44:01.961Z,0.22
2023-01-23T05:46:34.266Z,0.41
2023-01-23T05:49:06.362Z,0.67
2023-01-23T05:51:38.451Z,0.61
2023-01-23T05:54:11.122Z,0.66
2023-01-23T05:56:43.062Z,0.49
2023-01-23T05:59:15.009Z,0.62
2023-01-23T06:01:46.996Z,0.61
2023-01-23T06:04:19.593Z,0.56
2023-01-23T06:06:51.477Z,0.65
2023-01-23T06:09:23.428Z,0.39
2023-01-23T06:11:55.295Z,0.57
2023-01-23T06:14:27.297Z,0.67
2023-01-23T06:16:59.288Z,0.60
2023-01-23T06:19:31.392Z,0.70
2023-01-23T06:22:03.269Z,0.38
2023-01-23T06:24:35.241Z,0.72
2023-01-23T06:27:08.749Z,0.55
2023-01-23T06:29:40.638Z,0.73
2023-01-23T06:32:12.973Z,0.69
2023-01-23T06:34:45.048Z,0.74
2023-01-23T06:37:16.970Z,0.61
2023-01-23T06:39:48.907Z,0.64
2023-01-23T06:42:20.972Z,0.63
2023-01-23T06:44:52.867Z,0.60
2023-01-23T06:47:25.042Z,0.54
2023-01-23T06:49:57.012Z,0.60
2023-01-23T06:52:29.882Z,0.64
2023-01-23T06:55:01.854Z,0.64
2023-01-23T06:57:35.011Z,0.74
2023-01-23T07:00:07.782Z,0.57
2023-01-23T07:02:40.222Z,0.89
2023-01-23T07:05:12.248Z,0.68
2023-01-23T07:07:44.316Z,0.72
2023-01-23T07:10:16.473Z,0.77
2023-01-23T07:12:48.387Z,0.55
2023-01-23T07:15:20.418Z,0.80
2023-01-23T07:17:52.334Z,0.83
2023-01-23T07:20:27.796Z,0.74
2023-01-23T07:22:59.813Z,0.75
2023-01-23T07:25:31.853Z,0.79
2023-01-23T07:28:04.241Z,0.77
2023-01-23T07:30:36.285Z,0.70
2023-01-23T07:33:08.423Z,0.90
2023-01-23T07:35:40.558Z,0.71
2023-01-23T07:38:12.524Z,0.67
2023-01-23T07:40:45.663Z,0.65
2023-01-23T07:43:17.689Z,0.70
2023-01-23T07:45:50.711Z,0.77
2023-01-23T07:48:22.670Z,0.78
2023-01-23T07:50:54.590Z,0.59
2023-01-23T07:53:26.474Z,0.77
2023-01-23T07:55:58.471Z,0.70
2023-01-23T07:58:30.409Z,0.63
2023-01-23T08:01:11.651Z,0.74
2023-01-23T08:03:43.694Z,0.65
2023-01-23T08:06:15.727Z,0.59
2023-01-23T08:08:50.991Z,0.88
2023-01-23T08:11:24.309Z,0.77
2023-01-23T08:13:56.436Z,0.77
2023-01-23T08:16:28.615Z,1.00
2023-01-23T08:19:00.607Z,0.70
2023-01-23T08:21:32.558Z,0.72
2023-01-23T08:24:05.166Z,0.71
2023-01-23T08:26:37.156Z,0.62
2023-01-23T08:29:09.414Z,0.88
2023-01-23T08:31:41.438Z,0.41
2023-01-23T08:34:13.439Z,0.88
2023-01-23T08:36:45.503Z,0.76
2023-01-23T08:39:18.553Z,0.58
2023-01-23T08:41:51.139Z,0.96
2023-01-23T08:44:24.311Z,0.84
2023-01-23T08:46:56.242Z,0.85
2023-01-23T08:49:28.468Z,0.86
2023-01-23T08:52:00.437Z,0.86
2023-01-23T08:54:33.120Z,0.77
2023-01-23T08:57:05.453Z,0.87
2023-01-23T08:59:37.412Z,0.85
2023-01-23T09:02:12.296Z,0.80
2023-01-23T09:04:44.311Z,0.63
2023-01-23T09:07:16.540Z,1.01
2023-01-23T09:09:48.572Z,0.82
2023-01-23T09:12:20.763Z,1.06
2023-01-23T09:14:52.727Z,0.73
2023-01-23T09:17:25.147Z,0.95
2023-01-23T09:19:59.595Z,1.04
2023-01-23T09:22:32.120Z,1.02
2023-01-23T09:25:04.886Z,0.99
2023-01-23T09:27:36.913Z,0.56
2023-01-23T09:30:09.569Z,0.76
2023-01-23T09:32:41.415Z,1.00
2023-01-23T09:35:13.427Z,1.03
2023-01-23T09:38:00.392Z,0.75
2023-01-23T09:40:38.704Z,1.13
2023-01-23T09:43:39.719Z,1.20
2023-01-23T09:46:11.786Z,1.24
2023-01-23T09:48:46.253Z,1.36
2023-01-23T09:51:40.098Z,1.26
2023-01-23T09:54:49.154Z,1.25
2023-01-23T09:57:35.413Z,1.20
2023-01-23T10:00:21.163Z,1.35
2023-01-23T10:02:57.245Z,0.91
2023-01-23T10:05:41.945Z,1.27
2023-01-23T10:08:37.984Z,1.10
2023-01-23T10:11:44.847Z,1.04
2023-01-23T10:14:30.371Z,1.18
2023-01-23T10:17:25.462Z,1.27
2023-01-23T10:20:15.779Z,1.28
2023-01-23T10:22:55.945Z,1.28
2023-01-23T10:25:33.089Z,1.28
2023-01-23T10:28:35.638Z,1.19
2023-01-23T10:31:35.036Z,1.31
2023-01-23T10:34:09.873Z,1.35
2023-01-23T10:37:19.145Z,1.35
2023-01-23T10:39:59.770Z,1.37
2023-01-23T10:42:31.969Z,1.31
2023-01-23T10:45:04.808Z,1.47
2023-01-23T10:47:44.180Z,1.47
2023-01-23T10:50:17.283Z,1.29
2023-01-23T10:52:49.223Z,1.21
2023-01-23T10:55:24.105Z,1.47
2023-01-23T10:57:59.138Z,1.41
2023-01-23T11:00:38.434Z,1.50
2023-01-23T11:03:22.261Z,1.47
2023-01-23T11:06:09.121Z,1.49
2023-01-23T11:08:52.108Z,1.28
2023-01-23T11:11:27.591Z,1.39
2023-01-23T11:14:24.386Z,1.45
2023-01-23T11:17:12.903Z,1.58
2023-01-23T11:19:47.367Z,1.66
2023-01-23T11:22:38.346Z,1.67
2023-01-23T11:25:38.236Z,1.60
2023-01-23T11:28:36.896Z,1.69
2023-01-23T11:31:21.993Z,1.48
2023-01-23T11:34:02.916Z,1.82
2023-01-23T11:36:53.410Z,1.50
2023-01-23T11:39:43.045Z,1.61
2023-01-23T11:42:16.789Z,1.56
2023-01-23T11:44:50.296Z,1.53
2023-01-23T11:47:34.328Z,1.46
2023-01-23T11:50:54.523Z,1.47
2023-01-23T11:53:53.519Z,1.50
2023-01-23T11:56:56.417Z,1.41
2023-01-23T12:00:07.700Z,1.57
2023-01-23T12:03:07.195Z,1.39
2023-01-23T12:08:58.505Z,1.63
2023-01-23T12:12:09.690Z,1.47
2023-01-23T12:15:21.090Z,1.64
2023-01-23T12:18:12.000Z,1.54
2023-01-23T12:20:53.092Z,1.67
2023-01-23T12:23:45.881Z,1.46
2023-01-23T12:26:20.246Z,1.56
2023-01-23T12:29:09.631Z,1.64
2023-01-23T12:32:00.818Z,1.53
2023-01-23T12:35:20.236Z,1.41
2023-01-23T12:38:03.949Z,1.45
2023-01-23T12:41:17.975Z,1.40
2023-01-23T12:44:05.482Z,1.47
2023-01-23T12:46:42.374Z,1.44
2023-01-23T12:49:34.146Z,1.29
2023-01-23T12:52:24.076Z,1.35
2023-01-23T12:55:20.719Z,1.33
2023-01-23T12:58:08.079Z,1.48
2023-01-23T13:01:09.201Z,1.51
2023-01-23T13:03:59.998Z,1.28
2023-01-23T13:06:47.610Z,1.38
2023-01-23T13:09:30.936Z,1.31
2023-01-23T13:12:13.362Z,1.49
2023-01-23T13:15:06.853Z,1.44
2023-01-23T13:17:49.856Z,1.12
2023-01-23T13:20:51.477Z,1.40
2023-01-23T13:23:36.982Z,1.33
2023-01-23T13:26:23.337Z,1.41
2023-01-23T13:29:02.540Z,1.45
2023-01-23T13:31:40.787Z,1.46
2023-01-23T13:34:18.607Z,1.30
2023-01-23T13:36:52.277Z,1.28
2023-01-23T13:39:29.331Z,1.23
2023-01-23T13:42:16.390Z,1.07
2023-01-23T13:45:16.279Z,1.07
2023-01-23T13:48:16.071Z,1.06
2023-01-23T14:25:35.370Z,1.04
2023-01-23T14:28:07.384Z,1.11
2023-01-23T14:30:39.365Z,0.92
2023-01-23T14:33:17.313Z,0.81
2023-01-23T14:35:49.526Z,0.83
2023-01-23T14:38:32.013Z,0.79
2023-01-23T14:41:08.060Z,0.96
2023-01-23T14:43:43.177Z,0.97
2023-01-23T14:46:30.474Z,1.03
2023-01-23T14:49:04.526Z,0.91
2023-01-23T14:51:36.971Z,0.78
2023-01-23T14:54:23.017Z,0.98
2023-01-23T14:56:56.801Z,0.81
2023-01-23T14:59:34.393Z,1.02
2023-01-23T15:02:21.526Z,1.06
2023-01-23T15:05:18.730Z,0.93
2023-01-23T15:07:58.304Z,1.02
2023-01-23T15:10:41.618Z,0.95
2023-01-23T15:13:35.137Z,0.95
2023-01-23T15:16:14.447Z,0.86
2023-01-23T15:18:53.837Z,1.04
2023-01-23T15:21:38.615Z,0.85
2023-01-23T15:24:10.455Z,1.06
2023-01-23T15:26:55.895Z,0.91
2023-01-23T15:29:27.840Z,0.78
2023-01-23T15:32:01.272Z,1.05
2023-01-23T15:34:34.887Z,0.94
2023-01-23T15:37:22.948Z,1.02
2023-01-23T15:40:03.103Z,1.00
2023-01-23T15:42:37.585Z,0.83
2023-01-23T15:45:14.538Z,0.97
2023-01-23T15:47:46.465Z,0.86
2023-01-23T15:50:18.463Z,0.94
2023-01-23T15:52:52.658Z,0.85
2023-01-23T15:55:27.079Z,0.89
2023-01-23T15:57:59.044Z,0.67
2023-01-23T16:00:31.190Z,0.82
2023-01-23T16:03:03.192Z,1.03
2023-01-23T16:05:37.331Z,0.94
2023-01-23T16:08:20.700Z,1.07
2023-01-23T16:10:52.725Z,0.89
2023-01-23T16:13:24.821Z,0.96
2023-01-23T16:15:56.753Z,1.01
2023-01-23T16:18:28.740Z,0.82
2023-01-23T16:21:00.841Z,0.93
2023-01-23T16:23:46.682Z,0.97
2023-01-23T16:26:22.267Z,0.95
2023-01-23T16:29:01.992Z,0.93
2023-01-23T16:31:44.178Z,0.98
2023-01-23T16:34:16.150Z,0.89
2023-01-23T16:36:54.160Z,1.03
2023-01-23T16:39:28.029Z,0.71
2023-01-23T16:42:00.335Z,1.04
2023-01-23T16:44:32.324Z,1.05
2023-01-23T16:47:04.201Z,0.91
2023-01-23T16:49:50.942Z,0.94
2023-01-23T16:52:25.527Z,0.87
2023-01-23T16:54:57.535Z,0.84
2023-01-23T16:57:29.848Z,0.84
2023-01-23T17:00:01.998Z,0.84
2023-01-23T17:02:34.076Z,0.96
2023-01-23T17:05:06.591Z,0.67
2023-01-23T17:07:38.725Z,1.04
2023-01-23T17:10:18.009Z,0.81
2023-01-23T17:12:53.245Z,0.90
2023-01-23T17:15:28.341Z,0.89
2023-01-23T17:18:01.972Z,0.69
2023-01-23T17:20:33.944Z,0.79
2023-01-23T17:23:05.863Z,0.91
2023-01-23T17:25:50.977Z,0.76
2023-01-23T17:28:30.259Z,0.70
2023-01-23T17:31:02.116Z,0.89
2023-01-23T17:33:33.990Z,0.79
2023-01-23T17:36:07.725Z,0.90
2023-01-23T17:38:42.210Z,0.74
2023-01-23T17:41:15.452Z,0.91
2023-01-23T17:43:48.763Z,1.00
2023-01-23T17:46:27.327Z,0.95
2023-01-23T17:48:59.649Z,0.93
2023-01-23T17:51:33.849Z,0.96
2023-01-23T17:54:06.056Z,0.97
2023-01-23T17:56:38.431Z,0.98
2023-01-23T17:59:10.506Z,1.05
2023-01-23T18:01:42.574Z,1.10
2023-01-23T18:04:19.292Z,1.01
2023-01-23T18:06:51.696Z,1.04
2023-01-23T18:09:23.819Z,0.89
2023-01-23T18:11:56.064Z,1.08
2023-01-23T18:14:42.477Z,1.10
2023-01-23T18:17:22.823Z,1.10
2023-01-23T18:19:55.139Z,0.98
2023-01-23T18:22:27.360Z,0.98
2023-01-23T18:24:59.586Z,1.00
2023-01-23T18:27:37.528Z,1.20
2023-01-23T18:30:18.689Z,1.30
2023-01-23T18:33:02.737Z,1.21
2023-01-23T18:36:00.893Z,1.13
2023-01-23T18:38:53.907Z,1.14
2023-01-23T18:41:27.829Z,1.06
2023-01-23T18:44:05.569Z,1.20
2023-01-23T18:46:37.645Z,1.07
2023-01-23T18:49:13.505Z,1.19
2023-01-23T18:51:58.994Z,1.28
2023-01-23T18:54:43.579Z,1.21
2023-01-23T18:57:50.438Z,1.20
2023-01-23T19:00:28.436Z,1.16
2023-01-23T19:03:17.634Z,1.25
2023-01-23T19:05:49.931Z,1.11
2023-01-23T19:08:31.105Z,1.09
2023-01-23T19:11:07.359Z,0.78
2023-01-23T19:13:55.826Z,1.21
2023-01-23T19:16:32.237Z,1.12
2023-01-23T19:19:28.614Z,1.28
2023-01-23T19:22:00.848Z,1.17
2023-01-23T19:24:33.038Z,1.30
2023-01-23T19:27:11.537Z,1.16
2023-01-23T19:29:43.736Z,1.16
2023-01-23T19:32:16.509Z,0.97
2023-01-23T19:34:48.567Z,1.10
2023-01-23T19:37:20.548Z,1.15
2023-01-23T19:39:52.406Z,1.04
2023-01-23T19:42:24.269Z,0.81
2023-01-23T19:44:56.210Z,1.05
2023-01-23T19:47:28.132Z,1.12
2023-01-23T19:50:00.071Z,1.16
2023-01-23T19:52:32.016Z,1.09
2023-01-23T19:55:04.494Z,1.18
2023-01-23T19:57:36.413Z,1.07
2023-01-23T20:00:09.904Z,0.98
2023-01-23T20:02:41.853Z,1.06
2023-01-23T20:05:13.852Z,1.28
2023-01-23T20:07:45.888Z,1.03
2023-01-23T20:10:18.380Z,1.11
2023-01-23T20:12:55.577Z,1.16
2023-01-23T20:15:28.013Z,1.21
2023-01-23T20:17:59.939Z,0.97
2023-01-23T20:20:31.827Z,1.01
2023-01-23T20:23:03.808Z,0.74
2023-01-23T20:25:35.757Z,0.81
2023-01-23T20:28:08.386Z,0.98
2023-01-23T20:30:40.417Z,1.08
2023-01-23T20:33:12.604Z,1.13
2023-01-23T20:35:44.627Z,1.07
2023-01-23T20:38:16.557Z,1.01
2023-01-23T20:40:49.356Z,1.18
2023-01-23T20:43:21.514Z,1.21
2023-01-23T20:45:53.971Z,1.20
2023-01-23T20:48:26.101Z,1.05
2023-01-23T20:50:58.056Z,0.92
2023-01-23T20:53:31.648Z,1.10
2023-01-23T20:56:19.507Z,1.20
2023-01-23T20:59:10.073Z,1.07
2023-01-23T21:02:12.203Z,1.20
2023-01-23T21:04:46.366Z,1.08
2023-01-23T21:07:21.628Z,1.01
2023-01-23T21:09:53.589Z,0.92
2023-01-23T21:12:25.584Z,0.71
2023-01-23T21:14:57.720Z,1.08
2023-01-23T21:17:29.800Z,0.93
2023-01-23T21:20:01.812Z,0.97
2023-01-23T21:22:33.761Z,1.06
2023-01-23T21:25:06.360Z,1.01
2023-01-23T21:27:38.345Z,1.03
2023-01-23T21:30:10.968Z,0.95
2023-01-23T21:32:43.191Z,0.93
2023-01-23T21:35:15.204Z,0.87
2023-01-23T21:37:47.132Z,0.81
2023-01-23T21:40:19.302Z,0.75
2023-01-23T21:42:51.272Z,0.94
2023-01-23T21:45:23.408Z,1.01
2023-01-23T21:47:55.439Z,0.96
2023-01-23T21:50:27.384Z,0.96
2023-01-23T21:52:59.266Z,0.70
2023-01-23T21:55:31.270Z,0.96
2023-01-23T21:58:03.197Z,0.54
2023-01-23T22:00:53.724Z,0.88
2023-01-23T22:03:25.600Z,0.88
2023-01-23T22:05:59.035Z,0.94
2023-01-23T22:08:30.968Z,0.90
2023-01-23T22:11:05.332Z,0.92
2023-01-23T22:13:37.804Z,0.73
2023-01-23T22:16:09.851Z,0.78
2023-01-23T22:18:41.947Z,0.95
2023-01-23T22:21:13.988Z,0.74
2023-01-23T22:23:45.965Z,0.92
2023-01-23T22:26:18.179Z,0.69
2023-01-23T22:28:51.107Z,0.84
2023-01-23T22:31:23.140Z,0.93
2023-01-23T22:33:56.296Z,0.79
2023-01-23T22:36:28.303Z,0.74
2023-01-23T22:39:00.327Z,1.00
2023-01-23T22:41:32.525Z,0.88
2023-01-23T22:44:04.459Z,0.75
2023-01-23T22:46:36.540Z,0.79
2023-01-23T22:49:08.549Z,0.69
2023-01-23T22:51:40.517Z,0.72
2023-01-23T22:54:12.545Z,0.78
2023-01-23T22:56:44.549Z,0.85
2023-01-23T22:59:16.529Z,0.84
2023-01-23T23:01:48.481Z,0.89
2023-01-23T23:04:20.396Z,0.75
2023-01-23T23:06:52.392Z,0.87
2023-01-23T23:09:24.420Z,0.95
2023-01-23T23:11:56.861Z,0.54
2023-01-23T23:14:28.775Z,0.65
2023-01-23T23:17:00.799Z,0.77
2023-01-23T23:19:33.255Z,0.78
2023-01-23T23:22:05.981Z,0.61
2023-01-23T23:24:38.090Z,0.83
2023-01-23T23:27:10.025Z,0.76
2023-01-23T23:29:41.983Z,0.64
2023-01-23T23:32:14.134Z,0.73
2023-01-23T23:34:46.125Z,0.88
2023-01-23T23:37:18.039Z,0.82
2023-01-23T23:39:50.020Z,0.81
2023-01-23T23:42:21.953Z,0.89
2023-01-23T23:44:53.899Z,1.02
2023-01-23T23:47:25.854Z,0.99
2023-01-23T23:49:58.072Z,0.95
2023-01-23T23:52:29.992Z,0.91
2023-01-23T23:55:01.941Z,0.80
2023-01-23T23:57:33.910Z,0.84
